Time;durP1;ratioP1;P1;durP2;ratioP2;P2;SDS_P1;SDS_P2;PMS_P1;PMS_P2;Temp;Humidity;BMP_temperature;BMP_pressure;BME280_temperature;BME280_humidity;BME280_pressure;Samples;Min_cycle;Max_cycle;Signal;HPM_P1;HPM_P2
2021/09/30 00:01:27;;;;;;;9.75;2.40;;;;;;;12.57;80.87;98849.84;4979564;28;20589;-57
2021/09/30 00:03:53;;;;;;;11.93;3.42;;;;;;;12.41;80.28;98854.78;4979407;28;20713;-57
2021/09/30 00:06:19;;;;;;;11.25;3.15;;;;;;;12.76;79.91;98860.53;4978540;28;20041;-59
2021/09/30 00:08:45;;;;;;;13.35;3.25;;;;;;;12.43;80.91;98858.22;4979255;28;20092;-58
2021/09/30 00:11:12;;;;;;;7.60;2.47;;;;;;;12.75;79.06;98864.06;4975934;28;20050;-57
2021/09/30 00:13:48;;;;;;;7.25;2.30;;;;;;;12.55;78.64;98864.75;4977584;28;20054;-57
2021/09/30 00:46:43;;;;;;;3.95;2.20;;;;;;;12.09;79.23;98880.28;4978691;28;20134;-58
2021/09/30 00:49:06;;;;;;;5.70;2.35;;;;;;;11.69;82.00;98881.53;4978299;28;20137;-59
2021/09/30 00:54:27;;;;;;;5.47;2.05;;;;;;;11.53;81.56;98875.09;4978783;28;20534;-59
2021/09/30 02:21:05;;;;;;;7.90;2.83;;;;;;;10.22;84.75;98938.69;4989982;28;20056;-59
2021/09/30 02:58:11;;;;;;;5.82;2.72;;;;;;;10.53;86.47;98959.69;4981914;28;20037;-59
2021/09/30 02:59:22;;;;;;;5.65;2.70;;;;;;;9.57;85.79;98971.44;4980955;28;20037;-60
2021/09/30 03:01:49;;;;;;;8.82;2.92;;;;;;;9.94;84.68;98975.81;4980490;28;20038;-59
2021/09/30 03:04:17;;;;;;;5.90;2.97;;;;;;;10.12;86.67;98971.94;4980349;28;20026;-60
2021/09/30 03:06:44;;;;;;;8.50;3.22;;;;;;;10.30;83.62;98982.84;4981182;28;20542;-59
2021/09/30 03:09:12;;;;;;;9.48;3.30;;;;;;;9.66;85.94;98980.78;4981101;28;20030;-59
2021/09/30 03:11:40;;;;;;;10.45;3.17;;;;;;;9.54;85.52;98981.03;4980276;28;20050;-58
2021/09/30 03:14:08;;;;;;;6.20;2.75;;;;;;;10.29;81.73;98981.94;4981521;28;20133;-59
2021/09/30 03:24:36;;;;;;;4.43;2.40;;;;;;;10.72;81.93;98995.75;4981353;28;20092;-58
2021/09/30 03:27:02;;;;;;;5.50;2.83;;;;;;;10.26;82.60;98992.47;4980195;28;20038;-59
2021/09/30 03:29:27;;;;;;;5.78;2.45;;;;;;;10.56;83.20;98996.09;4980766;28;20026;-59
2021/09/30 03:31:53;;;;;;;5.60;2.45;;;;;;;10.12;84.49;99008.44;4979797;28;20181;-59
2021/09/30 03:34:19;;;;;;;7.90;3.00;;;;;;;10.29;83.94;99008.03;4980909;28;20121;-59
2021/09/30 03:36:44;;;;;;;7.70;2.97;;;;;;;10.15;83.87;99007.53;4979706;28;20040;-59
2021/09/30 03:39:14;;;;;;;5.68;2.72;;;;;;;9.80;83.47;99012.63;4980586;28;20056;-59
2021/09/30 03:41:42;;;;;;;6.40;2.70;;;;;;;10.12;83.22;99015.41;4995236;28;20153;-58
2021/09/30 03:44:10;;;;;;;5.35;2.78;;;;;;;9.75;84.66;99017.06;4979895;28;20030;-59
2021/09/30 03:46:35;;;;;;;5.82;3.00;;;;;;;9.90;83.09;99012.44;4978107;28;20038;-60
2021/09/30 03:49:08;;;;;;;5.95;2.85;;;;;;;9.84;84.90;99011.66;4979101;28;20145;-59
2021/09/30 03:56:51;;;;;;;5.72;2.53;;;;;;;10.17;81.96;99014.41;4978258;28;20355;-58
2021/09/30 03:59:19;;;;;;;9.48;2.50;;;;;;;10.25;82.44;99016.81;4979688;28;20030;-58
2021/09/30 04:01:57;;;;;;;6.05;2.80;;;;;;;10.23;81.65;99019.47;4979369;28;20038;-57
2021/09/30 04:04:26;;;;;;;6.90;2.75;;;;;;;10.22;82.96;99015.16;4979620;28;20030;-57
2021/09/30 04:06:56;;;;;;;4.97;2.10;;;;;;;10.75;86.23;99016.50;4978997;28;20065;-58
2021/09/30 04:09:26;;;;;;;4.75;2.35;;;;;;;10.24;82.22;99020.34;4979018;28;20062;-58
2021/09/30 04:11:54;;;;;;;6.63;2.88;;;;;;;10.28;82.45;99021.13;4979369;28;20038;-58
2021/09/30 04:14:19;;;;;;;5.90;2.80;;;;;;;9.99;83.54;99020.03;4979130;28;20108;-58
2021/09/30 04:16:47;;;;;;;7.82;2.90;;;;;;;9.82;84.02;99029.09;4979448;28;20506;-57
2021/09/30 04:19:15;;;;;;;5.03;2.28;;;;;;;9.67;83.77;99037.22;4978900;28;20097;-58
2021/09/30 04:21:40;;;;;;;6.45;2.53;;;;;;;9.92;82.48;99041.91;4978951;28;21082;-58
2021/09/30 04:24:06;;;;;;;5.30;2.45;;;;;;;10.19;82.31;99035.22;4979493;28;20125;-58
2021/09/30 04:26:31;;;;;;;5.60;2.75;;;;;;;9.59;83.25;99037.41;4977360;28;20053;-59
2021/09/30 04:28:56;;;;;;;5.78;2.67;;;;;;;9.74;85.89;99043.16;4979270;28;20618;-58
2021/09/30 04:31:23;;;;;;;7.13;2.70;;;;;;;9.63;82.32;99041.66;4979297;28;20026;-58
2021/09/30 04:33:50;;;;;;;5.60;2.58;;;;;;;10.02;82.02;99038.22;4979267;28;20026;-58
2021/09/30 04:36:15;;;;;;;5.13;2.47;;;;;;;10.31;80.14;99037.59;4978954;28;20030;-59
2021/09/30 04:38:41;;;;;;;6.20;2.55;;;;;;;9.75;80.75;99040.53;4978026;28;20053;-59
2021/09/30 04:41:06;;;;;;;6.75;2.83;;;;;;;9.31;82.40;99050.09;4978946;28;20130;-59
2021/09/30 04:43:31;;;;;;;7.20;2.40;;;;;;;10.96;80.39;99052.53;4979098;28;20117;-59
2021/09/30 04:45:57;;;;;;;6.93;2.30;;;;;;;10.91;79.82;99049.16;4979207;28;20070;-59
2021/09/30 04:48:22;;;;;;;6.90;2.67;;;;;;;9.55;79.52;99055.72;4979127;28;20167;-59
2021/09/30 04:50:47;;;;;;;5.43;2.90;;;;;;;9.42;81.21;99050.72;4978823;28;20047;-59
2021/09/30 04:53:13;;;;;;;7.45;2.80;;;;;;;9.07;82.87;99054.00;4979048;28;20038;-58
2021/09/30 04:55:38;;;;;;;7.40;3.17;;;;;;;9.20;83.09;99052.03;4978606;28;20066;-59
2021/09/30 04:58:05;;;;;;;5.57;2.30;;;;;;;9.69;84.32;99051.09;4978099;28;20029;-59
2021/09/30 05:00:30;;;;;;;6.47;2.25;;;;;;;10.59;79.69;99048.22;4978465;28;20050;-60
2021/09/30 05:02:55;;;;;;;4.95;2.60;;;;;;;9.59;79.99;99045.22;4969238;28;20030;-59
2021/09/30 05:05:21;;;;;;;5.50;2.60;;;;;;;9.48;81.02;99048.91;4980045;28;20034;-59
2021/09/30 05:07:47;;;;;;;9.85;2.95;;;;;;;10.54;77.42;99047.47;4981483;28;20014;-59
2021/09/30 05:10:20;;;;;;;4.00;1.88;;;;;;;10.21;80.44;99046.47;4978992;28;20026;-59
2021/09/30 05:12:46;;;;;;;8.95;2.75;;;;;;;9.40;79.40;99042.09;4981180;28;20033;-59
2021/09/30 05:15:11;;;;;;;7.82;3.70;;;;;;;8.98;82.06;99049.81;4978596;28;20117;-59
2021/09/30 05:17:37;;;;;;;8.80;3.90;;;;;;;8.72;82.31;99039.00;4981447;28;20109;-59
2021/09/30 05:20:03;;;;;;;6.57;3.25;;;;;;;8.95;82.56;99047.28;4981593;28;20022;-58
2021/09/30 05:22:29;;;;;;;10.15;3.28;;;;;;;8.52;82.42;99055.78;4981324;28;20447;-58
2021/09/30 05:24:54;;;;;;;6.00;3.30;;;;;;;8.41;82.43;99057.69;4982050;28;20717;-58
2021/09/30 05:27:19;;;;;;;10.45;3.67;;;;;;;8.24;83.69;99068.31;4980870;28;20039;-58
2021/09/30 05:29:45;;;;;;;10.25;3.60;;;;;;;8.25;83.54;99057.91;4981998;28;20014;-59
2021/09/30 05:32:10;;;;;;;8.75;4.07;;;;;;;8.08;84.66;99070.28;4982384;28;20201;-58
2021/09/30 05:34:36;;;;;;;10.43;3.80;;;;;;;8.52;82.93;99074.00;4982160;28;20030;-60
2021/09/30 05:37:01;;;;;;;19.88;4.20;;;;;;;8.83;88.44;99065.69;4981945;28;20236;-58
2021/09/30 05:39:26;;;;;;;6.75;3.50;;;;;;;8.24;84.58;99073.53;4982148;28;20113;-58
2021/09/30 05:41:54;;;;;;;10.07;3.92;;;;;;;8.32;84.14;99073.41;4982174;28;20073;-59
2021/09/30 05:44:24;;;;;;;7.20;3.80;;;;;;;8.52;84.14;99087.00;4982143;28;20049;-58
2021/09/30 05:46:53;;;;;;;16.33;4.50;;;;;;;9.37;82.57;99083.81;4982360;28;20454;-58
2021/09/30 05:49:21;;;;;;;19.75;5.05;;;;;;;12.45;98.54;99086.66;4981928;28;20680;-58
2021/09/30 05:51:46;;;;;;;17.73;4.68;;;;;;;11.70;75.70;99087.09;4979024;28;20109;-59
2021/09/30 05:54:12;;;;;;;12.40;3.50;;;;;;;12.14;81.01;99097.22;4977323;28;20022;-58
2021/09/30 05:56:37;;;;;;;10.18;3.30;;;;;;;13.49;80.71;99098.09;4980613;28;20038;-58
2021/09/30 05:59:02;;;;;;;6.60;2.70;;;;;;;11.95;78.38;99087.28;4981825;28;20054;-58
2021/09/30 06:01:43;;;;;;;6.60;3.15;;;;;;;11.43;77.51;99087.88;4981573;28;20070;-58
2021/09/30 06:12:13;;;;;;;6.03;2.42;;;;;;;17.79;65.99;99071.31;4985664;28;20050;-61
2021/09/30 06:14:41;;;;;;;6.00;2.50;;;;;;;17.08;68.18;99080.22;4984858;28;20033;-59
2021/09/30 06:17:07;;;;;;;4.40;2.22;;;;;;;17.12;62.99;99084.41;4985720;28;20042;-56
2021/09/30 06:19:32;;;;;;;3.60;2.10;;;;;;;16.67;62.53;99077.84;4982677;28;20526;-58
2021/09/30 06:21:58;;;;;;;4.88;2.30;;;;;;;13.75;65.70;99084.94;4984343;28;20132;-56
2021/09/30 06:24:24;;;;;;;4.07;1.98;;;;;;;15.86;66.45;99082.53;4983674;28;20419;-56
2021/09/30 06:26:50;;;;;;;5.22;2.22;;;;;;;15.02;63.50;99084.38;4984376;28;20066;-56
2021/09/30 06:29:16;;;;;;;5.63;2.25;;;;;;;17.54;60.73;99088.41;4983936;28;20105;-56
2021/09/30 06:31:41;;;;;;;4.32;1.80;;;;;;;16.90;63.35;99092.53;4983839;28;20125;-55
2021/09/30 06:34:07;;;;;;;4.95;2.22;;;;;;;15.61;59.43;99103.78;4982988;28;20396;-57
2021/09/30 06:36:33;;;;;;;3.53;1.90;;;;;;;18.17;57.94;99102.72;4984187;28;20038;-56
2021/09/30 06:38:58;;;;;;;3.53;1.70;;;;;;;17.61;55.26;99102.16;4982982;28;20112;-58
2021/09/30 06:41:24;;;;;;;3.10;1.60;;;;;;;19.56;52.32;99103.59;4984006;28;20847;-56
2021/09/30 06:43:49;;;;;;;4.85;2.05;;;;;;;20.45;49.07;99110.47;4984577;28;20439;-56
2021/09/30 06:46:15;;;;;;;3.88;1.60;;;;;;;21.46;48.31;99110.97;4984276;28;20074;-57
2021/09/30 06:48:40;;;;;;;4.65;1.70;;;;;;;22.27;45.87;99108.91;4984160;28;20030;-56
2021/09/30 06:51:06;;;;;;;6.38;1.83;;;;;;;22.61;44.45;99107.34;4982551;28;20093;-57
2021/09/30 06:53:32;;;;;;;4.55;1.90;;;;;;;22.13;45.72;99107.22;4984535;28;20501;-57
2021/09/30 06:56:08;;;;;;;6.15;2.10;;;;;;;22.48;45.51;99112.69;4983862;28;20085;-57
2021/09/30 06:58:47;;;;;;;5.32;2.00;;;;;;;21.24;47.84;99122.13;4984350;28;20108;-57
2021/09/30 07:01:15;;;;;;;5.95;1.90;;;;;;;23.99;42.52;99116.50;4983246;28;20081;-56
2021/09/30 07:03:41;;;;;;;4.75;1.85;;;;;;;22.28;43.64;99107.97;4982821;28;20037;-58
2021/09/30 07:06:06;;;;;;;3.45;1.67;;;;;;;20.71;46.78;99113.28;4983143;28;20038;-57
2021/09/30 07:08:32;;;;;;;3.47;1.55;;;;;;;21.27;46.02;99113.97;4984315;28;20026;-57
2021/09/30 07:10:58;;;;;;;3.10;1.58;;;;;;;21.77;47.06;99118.63;4980199;28;20054;-58
2021/09/30 07:13:25;;;;;;;3.78;1.60;;;;;;;20.20;48.34;99120.00;4986683;28;20076;-57
2021/09/30 07:15:51;;;;;;;4.05;1.77;;;;;;;20.55;47.36;99119.56;4981728;28;20034;-57
2021/09/30 07:18:19;;;;;;;5.90;1.60;;;;;;;20.66;47.28;99123.31;4983829;28;20076;-57
2021/09/30 07:20:53;;;;;;;3.63;1.77;;;;;;;20.70;47.72;99120.38;4982281;28;20042;-56
2021/09/30 07:23:20;;;;;;;4.38;1.60;;;;;;;24.04;42.50;99124.97;4983951;28;20026;-56
2021/09/30 07:25:45;;;;;;;3.15;1.60;;;;;;;20.67;46.43;99115.28;4983191;28;20116;-55
2021/09/30 07:28:11;;;;;;;3.38;1.65;;;;;;;19.52;48.57;99127.69;4983354;28;20133;-56
2021/09/30 07:30:36;;;;;;;6.55;1.73;;;;;;;22.61;44.87;99125.94;4981236;28;20038;-56
2021/09/30 07:33:02;;;;;;;5.43;1.90;;;;;;;21.23;45.29;99128.41;4983691;28;20084;-56
2021/09/30 07:35:28;;;;;;;3.60;1.70;;;;;;;22.09;44.49;99127.84;4982870;28;20944;-56
2021/09/30 07:37:54;;;;;;;5.72;1.70;;;;;;;23.66;41.70;99126.97;4998588;28;20957;-56
2021/09/30 07:40:21;;;;;;;6.15;1.80;;;;;;;20.74;46.02;99137.78;4982186;28;20165;-57
2021/09/30 07:42:46;;;;;;;3.45;1.40;;;;;;;23.00;42.62;99129.28;4983441;28;20045;-56
2021/09/30 07:45:12;;;;;;;4.70;1.67;;;;;;;23.35;44.43;99138.28;4982951;28;20044;-58
2021/09/30 07:47:38;;;;;;;3.28;1.80;;;;;;;21.67;45.18;99137.84;4983591;28;20038;-56
2021/09/30 07:50:04;;;;;;;4.65;1.70;;;;;;;21.15;46.00;99133.38;4982409;28;20018;-55
2021/09/30 07:52:30;;;;;;;6.75;1.60;;;;;;;21.95;46.72;99141.25;4983420;28;20034;-56
2021/09/30 07:54:55;;;;;;;7.45;1.83;;;;;;;23.26;43.04;99137.16;4982546;28;20042;-56
2021/09/30 07:57:21;;;;;;;6.57;1.90;;;;;;;23.66;41.65;99134.13;4982475;28;20042;-56
2021/09/30 07:59:47;;;;;;;4.90;1.60;;;;;;;24.34;39.34;99137.69;4982855;28;20088;-58
2021/09/30 08:02:12;;;;;;;4.05;1.60;;;;;;;24.79;40.76;99140.31;4981324;28;20046;-56
2021/09/30 08:04:38;;;;;;;4.47;1.75;;;;;;;23.41;42.09;99143.13;4983004;28;20045;-57
2021/09/30 08:07:05;;;;;;;5.25;1.58;;;;;;;22.49;44.15;99151.59;4982371;28;20133;-56
2021/09/30 08:09:32;;;;;;;3.95;1.77;;;;;;;20.86;46.20;99146.78;4982726;28;20105;-57
2021/09/30 08:11:57;;;;;;;4.30;1.70;;;;;;;21.20;45.64;99149.84;4981177;28;20050;-56
2021/09/30 08:14:23;;;;;;;4.95;1.70;;;;;;;22.91;42.23;99146.78;4982748;28;20026;-57
2021/09/30 08:16:49;;;;;;;4.65;1.80;;;;;;;24.73;39.30;99132.81;4980641;28;20085;-56
2021/09/30 08:19:15;;;;;;;3.42;1.40;;;;;;;23.94;41.79;99132.84;4982338;28;20692;-55
2021/09/30 08:21:44;;;;;;;5.55;1.80;;;;;;;23.82;41.28;99137.34;4980575;28;20050;-56
2021/09/30 08:24:13;;;;;;;4.15;1.60;;;;;;;27.04;36.98;99131.69;4982354;28;20121;-56
2021/09/30 08:26:39;;;;;;;5.35;1.70;;;;;;;20.73;45.11;99140.53;4981632;28;20049;-57
2021/09/30 08:29:04;;;;;;;5.72;1.70;;;;;;;22.86;43.38;99132.94;4982280;28;20030;-57
2021/09/30 08:31:30;;;;;;;3.90;1.80;;;;;;;22.71;42.73;99132.28;4980964;28;20599;-55
2021/09/30 08:33:58;;;;;;;5.28;1.83;;;;;;;21.66;43.15;99130.00;4982538;28;20026;-57
2021/09/30 08:36:25;;;;;;;4.38;1.75;;;;;;;21.75;44.31;99130.19;4981130;28;20054;-56
2021/09/30 08:38:51;;;;;;;4.68;1.55;;;;;;;24.47;40.20;99121.56;4982234;28;20038;-58
2021/09/30 08:41:20;;;;;;;5.25;1.83;;;;;;;21.97;43.93;99128.72;4981048;28;20034;-57
2021/09/30 08:43:46;;;;;;;5.28;1.85;;;;;;;21.20;44.49;99133.91;4982288;28;20117;-57
2021/09/30 08:46:12;;;;;;;8.20;1.70;;;;;;;21.04;45.45;99131.44;4981291;28;20753;-57
2021/09/30 08:48:38;;;;;;;4.57;1.70;;;;;;;21.30;46.02;99136.81;4981974;28;20034;-56
2021/09/30 08:51:05;;;;;;;4.47;1.90;;;;;;;21.09;45.76;99120.53;4981345;28;20542;-57
2021/09/30 08:53:32;;;;;;;5.22;1.52;;;;;;;21.58;43.52;99121.69;4981955;28;20032;-57
2021/09/30 08:55:57;;;;;;;5.05;1.88;;;;;;;22.07;43.34;99112.97;4980962;28;20077;-56
2021/09/30 08:58:23;;;;;;;8.45;1.67;;;;;;;21.51;43.89;99113.31;4982024;28;20023;-56
2021/09/30 09:00:52;;;;;;;4.47;1.40;;;;;;;23.52;39.81;99113.88;4981112;28;20101;-57
2021/09/30 09:03:32;;;;;;;4.95;1.70;;;;;;;21.93;44.49;99111.28;4981977;28;20061;-57
2021/09/30 09:05:57;;;;;;;6.43;1.70;;;;;;;24.68;39.08;99113.66;4980887;28;20038;-57
2021/09/30 09:08:23;;;;;;;5.43;1.70;;;;;;;22.25;43.21;99105.50;4981738;28;20458;-57
2021/09/30 09:10:51;;;;;;;4.13;1.50;;;;;;;23.29;40.65;99103.19;4980307;28;20042;-57
2021/09/30 09:13:18;;;;;;;8.30;1.70;;;;;;;21.45;44.18;99117.25;4981188;28;20026;-57
2021/09/30 09:15:48;;;;;;;4.25;1.70;;;;;;;23.00;41.40;99112.47;4981631;28;20042;-55
2021/09/30 09:18:20;;;;;;;5.93;1.65;;;;;;;22.06;41.48;99117.44;4981349;28;20027;-58
2021/09/30 09:21:06;;;;;;;5.93;1.73;;;;;;;20.35;44.31;99115.53;4980762;28;20042;-56
2021/09/30 09:23:41;;;;;;;6.43;1.60;;;;;;;19.90;44.80;99119.25;4981044;28;20046;-57
2021/09/30 09:26:08;;;;;;;6.03;1.45;;;;;;;22.28;40.87;99118.59;4980357;28;20081;-57
2021/09/30 09:28:33;;;;;;;3.92;1.65;;;;;;;21.33;42.39;99121.53;4980664;28;20077;-59
2021/09/30 09:30:59;;;;;;;5.15;1.63;;;;;;;22.70;40.34;99116.47;4980982;28;20046;-58
2021/09/30 09:33:29;;;;;;;4.15;1.30;;;;;;;24.78;39.05;99109.25;4981243;28;20067;-56
2021/09/30 09:36:12;;;;;;;4.72;1.50;;;;;;;22.00;40.72;99115.22;4980832;28;20042;-56
2021/09/30 09:38:52;;;;;;;2.70;1.30;;;;;;;22.12;40.39;99119.66;4981152;28;20037;-56
2021/09/30 09:41:29;;;;;;;4.43;1.38;;;;;;;20.38;45.12;99119.75;4980365;28;20061;-57
2021/09/30 09:43:57;;;;;;;2.63;1.27;;;;;;;21.71;41.71;99127.88;4984373;28;20033;-57
2021/09/30 09:46:28;;;;;;;2.83;1.20;;;;;;;20.75;42.11;99120.06;4984759;28;20045;-57
2021/09/30 09:49:00;;;;;;;3.90;1.48;;;;;;;22.32;40.48;99117.41;4984999;28;20062;-57
2021/09/30 09:51:32;;;;;;;;;;;;;;;22.43;41.24;99124.63;4984994;28;20043;-57
2021/09/30 09:53:57;;;;;;;4.13;1.30;;;;;;;21.57;40.06;99128.81;4984371;28;20342;-56
2021/09/30 09:56:23;;;;;;;4.82;1.50;;;;;;;23.01;40.13;99115.03;4984894;28;20773;-57
2021/09/30 09:58:57;;;;;;;5.13;1.35;;;;;;;20.86;41.71;99117.59;4984569;28;20030;-58
2021/09/30 10:01:36;;;;;;;2.75;1.10;;;;;;;20.67;43.53;99109.97;4984468;28;20046;-58
2021/09/30 10:04:02;;;;;;;4.85;1.30;;;;;;;19.64;44.95;99103.13;4999743;28;20112;-59
2021/09/30 10:06:30;;;;;;;3.58;1.30;;;;;;;19.38;45.19;99113.47;4984400;28;20042;-57
2021/09/30 10:08:57;;;;;;;4.28;1.63;;;;;;;19.04;46.19;99107.53;4984341;28;20036;-57
2021/09/30 10:11:23;;;;;;;2.95;1.20;;;;;;;18.27;46.27;99103.91;4984352;28;20038;-56
2021/09/30 10:13:49;;;;;;;4.38;1.38;;;;;;;19.23;46.98;99101.19;4984915;28;20042;-58
2021/09/30 10:16:24;;;;;;;3.38;1.35;;;;;;;17.87;47.47;99099.94;4984566;28;20092;-58
2021/09/30 10:18:50;;;;;;;5.07;1.23;;;;;;;17.95;48.75;99103.03;4984641;28;20026;-56
2021/09/30 10:21:16;;;;;;;4.72;1.30;;;;;;;17.15;50.03;99092.19;4984085;28;20042;-57
2021/09/30 10:23:41;;;;;;;3.60;1.20;;;;;;;16.80;49.39;99095.66;4984938;28;20030;-56
2021/09/30 10:26:21;;;;;;;3.60;1.35;;;;;;;17.00;50.25;99095.59;4984634;28;20030;-57
2021/09/30 10:28:47;;;;;;;2.67;1.20;;;;;;;16.86;50.75;99098.06;4984215;28;20022;-59
2021/09/30 10:31:24;;;;;;;4.75;1.50;;;;;;;18.17;48.03;99091.31;4984142;28;20125;-56
2021/09/30 10:33:52;;;;;;;2.70;1.20;;;;;;;18.00;46.18;99089.59;4984428;28;20686;-57
2021/09/30 10:36:40;;;;;;;3.08;1.30;;;;;;;18.72;46.16;99092.66;4983633;28;20372;-56
2021/09/30 10:39:17;;;;;;;4.20;1.23;;;;;;;18.51;48.56;99090.28;4984007;28;20414;-56
2021/09/30 10:41:44;;;;;;;2.50;1.40;;;;;;;18.10;46.32;99088.13;4984029;28;20070;-56
2021/09/30 10:44:19;;;;;;;3.10;1.25;;;;;;;17.98;46.73;99091.47;4983734;28;20040;-57
2021/09/30 10:46:50;;;;;;;4.40;1.40;;;;;;;18.82;46.16;99088.56;4984041;28;20061;-56
2021/09/30 10:49:29;;;;;;;5.20;1.63;;;;;;;17.98;47.91;99086.19;4983083;28;20761;-56
2021/09/30 10:52:16;;;;;;;3.38;1.33;;;;;;;18.28;47.89;99092.41;4983690;28;20638;-58
2021/09/30 10:54:46;;;;;;;8.00;1.25;;;;;;;19.31;46.25;99085.69;4982211;28;20026;-58
2021/09/30 10:57:35;;;;;;;3.80;1.30;;;;;;;18.18;48.01;99088.59;4983324;28;20085;-56
2021/09/30 11:00:02;;;;;;;3.22;1.10;;;;;;;18.90;43.83;99081.06;4983861;28;20022;-56
2021/09/30 11:02:27;;;;;;;2.90;1.13;;;;;;;18.39;46.41;99081.25;4983165;28;20087;-57
2021/09/30 11:05:10;;;;;;;4.00;1.10;;;;;;;19.32;42.41;99076.81;4982477;28;20545;-57
2021/09/30 11:07:40;;;;;;;4.72;1.23;;;;;;;20.02;41.86;99076.13;4983730;28;20499;-57
2021/09/30 11:10:25;;;;;;;3.03;0.95;;;;;;;20.58;41.17;99063.66;4982930;28;20045;-57
2021/09/30 11:13:15;;;;;;;3.20;1.00;;;;;;;21.03;39.79;99067.91;4983890;28;20637;-58
2021/09/30 11:16:03;;;;;;;2.15;0.90;;;;;;;21.08;38.68;99058.66;4983480;28;20046;-57
2021/09/30 11:18:56;;;;;;;2.97;1.10;;;;;;;20.59;41.35;99059.25;4983543;28;20037;-54
2021/09/30 11:21:30;;;;;;;;;;;;;;;20.63;36.78;99054.63;4984185;28;20120;-57
2021/09/30 11:23:55;;;;;;;1.83;0.98;;;;;;;20.53;38.73;99049.03;4983411;28;19905;-59
2021/09/30 11:26:21;;;;;;;2.10;1.00;;;;;;;20.64;39.91;99051.00;4983179;28;20041;-57
2021/09/30 11:28:47;;;;;;;3.05;1.10;;;;;;;19.83;40.83;99048.16;4982584;28;20308;-58
2021/09/30 11:31:26;;;;;;;3.33;1.20;;;;;;;19.23;43.13;99045.63;4983320;28;20129;-55
2021/09/30 11:33:58;;;;;;;2.17;1.10;;;;;;;18.96;43.22;99035.75;4982717;28;20077;-55
2021/09/30 11:36:40;;;;;;;3.00;1.17;;;;;;;18.91;43.30;99037.78;4982649;28;20031;-56
2021/09/30 11:39:06;;;;;;;3.20;1.20;;;;;;;19.41;41.65;99033.09;4982542;28;20014;-57
2021/09/30 11:41:34;;;;;;;2.75;1.13;;;;;;;18.05;41.88;99029.47;4982907;28;20385;-58
2021/09/30 11:44:01;;;;;;;2.60;1.20;;;;;;;18.81;42.42;99028.72;4982942;28;20033;-55
2021/09/30 11:46:31;;;;;;;4.15;1.20;;;;;;;18.83;42.95;99017.09;4982416;28;20696;-56
2021/09/30 11:49:11;;;;;;;3.28;1.10;;;;;;;18.56;43.40;99019.53;4982126;28;20026;-55
2021/09/30 11:51:44;;;;;;;2.20;1.00;;;;;;;18.31;45.00;99020.09;4981783;28;20137;-55
2021/09/30 11:54:14;;;;;;;5.03;1.30;;;;;;;18.10;44.65;99016.84;4982597;28;20715;-56
2021/09/30 11:57:03;;;;;;;3.00;1.30;;;;;;;18.04;45.78;99011.91;4982646;28;20043;-55
2021/09/30 11:59:30;;;;;;;4.70;1.17;;;;;;;17.65;46.42;99013.13;4982045;28;20082;-55
2021/09/30 12:01:58;;;;;;;4.03;1.27;;;;;;;17.99;46.65;99009.53;4982311;28;20049;-57
2021/09/30 12:04:43;;;;;;;4.65;1.45;;;;;;;17.65;46.16;99007.84;4982042;28;20168;-56
2021/09/30 12:07:17;;;;;;;5.07;1.35;;;;;;;17.85;45.93;99001.53;4981326;28;20056;-56
2021/09/30 12:09:42;;;;;;;3.25;1.10;;;;;;;17.71;47.25;99007.53;4980824;28;20022;-56
2021/09/30 12:12:08;;;;;;;2.47;1.05;;;;;;;17.73;46.66;99005.66;4981930;28;20077;-56
2021/09/30 12:14:34;;;;;;;1.75;1.00;;;;;;;18.17;45.84;98998.88;4981747;28;20021;-57
2021/09/30 12:17:02;;;;;;;3.03;1.10;;;;;;;18.50;41.03;98993.47;4980516;28;20045;-55
2021/09/30 12:19:54;;;;;;;4.28;1.10;;;;;;;18.67;44.41;98993.34;4981268;28;20034;-56
2021/09/30 12:22:36;;;;;;;2.13;1.08;;;;;;;18.32;43.96;98990.09;4979797;28;20109;-57
2021/09/30 12:25:06;;;;;;;3.22;1.35;;;;;;;18.69;42.44;98994.13;4981417;28;20107;-57
2021/09/30 12:27:34;;;;;;;3.00;1.10;;;;;;;18.52;41.09;98994.22;4982604;28;20042;-57
2021/09/30 12:30:12;;;;;;;1.90;1.02;;;;;;;18.28;38.28;98989.41;4981293;28;20022;-56
2021/09/30 12:32:41;;;;;;;2.80;1.00;;;;;;;18.98;39.75;98991.56;4982393;28;20034;-57
2021/09/30 12:35:10;;;;;;;2.22;1.00;;;;;;;18.50;36.96;98982.91;4981752;28;20030;-56
2021/09/30 12:37:38;;;;;;;2.55;1.10;;;;;;;18.57;38.12;98978.97;4982413;28;20042;-57
2021/09/30 12:40:12;;;;;;;4.30;1.20;;;;;;;18.22;39.04;98973.91;4981416;28;20026;-57
2021/09/30 12:42:38;;;;;;;3.63;1.38;;;;;;;18.26;39.80;98970.16;4982383;28;20068;-57
2021/09/30 12:45:06;;;;;;;3.50;1.27;;;;;;;18.55;42.78;98970.28;4982014;28;20030;-56
2021/09/30 12:47:39;;;;;;;2.10;1.10;;;;;;;18.72;39.66;98965.81;4981979;28;20034;-57
2021/09/30 12:50:15;;;;;;;2.45;1.20;;;;;;;18.46;38.39;98960.25;4981140;28;20649;-58
2021/09/30 12:52:41;;;;;;;4.20;1.15;;;;;;;19.50;40.84;98971.69;4982049;28;20447;-56
2021/09/30 12:55:18;;;;;;;2.78;1.20;;;;;;;18.50;38.03;98967.03;4981474;28;20030;-55
2021/09/30 12:57:44;;;;;;;5.10;1.50;;;;;;;19.11;39.61;98964.38;4980636;28;20026;-56
2021/09/30 13:00:17;;;;;;;1.90;1.10;;;;;;;19.13;41.13;98959.84;4980818;28;20046;-56
2021/09/30 13:02:42;;;;;;;3.08;1.10;;;;;;;19.50;40.45;98965.50;4981867;28;20030;-56
2021/09/30 13:05:08;;;;;;;3.75;1.30;;;;;;;18.72;38.16;98955.22;4981190;28;20621;-57
2021/09/30 13:07:45;;;;;;;3.00;1.20;;;;;;;18.99;40.53;98958.06;4981988;28;20033;-58
2021/09/30 13:10:11;;;;;;;5.03;1.23;;;;;;;19.06;38.93;98960.22;4979432;28;20022;-57
2021/09/30 13:12:37;;;;;;;4.93;1.30;;;;;;;18.86;39.55;98950.84;4981872;28;20038;-57
2021/09/30 13:15:04;;;;;;;2.42;1.13;;;;;;;19.24;41.29;98949.44;4981920;28;20061;-56
2021/09/30 13:17:30;;;;;;;2.60;1.20;;;;;;;19.03;38.03;98939.25;4979691;28;20704;-56
2021/09/30 13:20:06;;;;;;;2.60;1.17;;;;;;;19.34;38.76;98937.38;4980897;28;20037;-56
2021/09/30 13:22:33;;;;;;;8.32;1.38;;;;;;;19.12;40.62;98929.06;4981344;28;20073;-58
2021/09/30 13:25:06;;;;;;;4.80;1.23;;;;;;;19.28;40.07;98932.47;4981741;28;20073;-56
2021/09/30 13:27:35;;;;;;;;;;;;;;;19.63;41.44;98934.72;4981173;28;20038;-57
2021/09/30 13:30:05;;;;;;;3.08;1.10;;;;;;;18.73;39.92;98938.41;4980962;28;19917;-58
2021/09/30 13:32:31;;;;;;;2.42;1.20;;;;;;;18.91;43.26;98939.97;4980682;28;20616;-55
2021/09/30 13:34:57;;;;;;;3.03;1.30;;;;;;;19.07;41.03;98937.28;4981362;28;20488;-55
2021/09/30 13:37:25;;;;;;;3.50;1.20;;;;;;;19.50;41.72;98942.56;4981100;28;20499;-55
2021/09/30 13:39:54;;;;;;;3.15;1.25;;;;;;;18.74;40.77;98934.84;4980292;28;20121;-58
2021/09/30 13:42:20;;;;;;;3.55;1.30;;;;;;;17.91;43.09;98933.41;4980820;28;20035;-57
2021/09/30 13:44:45;;;;;;;3.45;1.40;;;;;;;18.53;41.56;98923.72;4981365;28;20027;-56
2021/09/30 13:47:10;;;;;;;3.20;1.50;;;;;;;18.15;40.81;98918.91;4980643;28;20038;-57
2021/09/30 13:49:36;;;;;;;3.72;1.25;;;;;;;17.61;40.95;98919.25;4995864;28;20029;-55
2021/09/30 13:52:02;;;;;;;5.43;1.42;;;;;;;18.01;42.47;98922.31;4979868;28;20038;-56
2021/09/30 13:54:27;;;;;;;3.92;1.50;;;;;;;18.15;40.23;98911.84;4980013;28;20061;-56
2021/09/30 13:56:53;;;;;;;5.97;1.50;;;;;;;17.51;40.36;98914.47;4980973;28;20129;-55
2021/09/30 13:59:18;;;;;;;4.05;1.70;;;;;;;18.23;40.77;98912.25;4981000;28;20050;-56
2021/09/30 14:01:43;;;;;;;2.85;1.27;;;;;;;17.83;42.38;98913.63;4980428;28;20076;-55
2021/09/30 14:04:09;;;;;;;3.45;1.20;;;;;;;18.74;41.42;98909.25;4981255;28;20030;-55
2021/09/30 14:06:34;;;;;;;2.30;1.05;;;;;;;18.46;39.23;98907.41;4979004;28;20069;-55
2021/09/30 14:09:00;;;;;;;3.08;1.30;;;;;;;18.39;41.08;98908.72;4979404;28;20061;-55
2021/09/30 14:11:25;;;;;;;2.70;1.00;;;;;;;18.29;39.98;98903.13;4980515;28;20051;-56
2021/09/30 14:13:53;;;;;;;3.67;1.08;;;;;;;18.64;37.86;98900.19;4979915;28;20061;-56
2021/09/30 14:16:20;;;;;;;3.83;1.30;;;;;;;18.42;41.92;98906.75;4982581;28;20030;-57
2021/09/30 14:18:46;;;;;;;2.58;1.17;;;;;;;18.16;39.53;98900.34;4980458;28;20030;-57
2021/09/30 14:21:12;;;;;;;3.05;1.00;;;;;;;18.26;41.95;98893.56;4978864;28;20069;-57
2021/09/30 14:23:37;;;;;;;3.13;1.27;;;;;;;18.15;39.52;98892.50;4981313;28;20057;-60
2021/09/30 14:26:03;;;;;;;3.28;1.10;;;;;;;18.22;40.46;98894.69;4979545;28;20031;-56
2021/09/30 14:28:28;;;;;;;1.77;1.00;;;;;;;17.86;39.54;98893.22;4980220;28;20038;-56
2021/09/30 14:30:56;;;;;;;3.33;1.30;;;;;;;18.13;38.51;98889.09;4983318;28;20046;-57
2021/09/30 14:33:25;;;;;;;4.70;1.70;;;;;;;18.18;40.30;98898.47;4984940;28;20022;-56